sensor_id;sensor_type;location;lat;lon;timestamp;pressure;altitude;pressure_sealevel;temperature;humidity
74895;BME280;63447;49.446;8.666;2023-04-01T00:01:10;98986.31;;;9.65;74.73
74895;BME280;63447;49.446;8.666;2023-04-01T00:03:37;98980.75;;;9.61;74.76
74895;BME280;63447;49.446;8.666;2023-04-01T00:06:04;98985.25;;;9.69;74.44
74895;BME280;63447;49.446;8.666;2023-04-01T00:08:30;98978.56;;;9.70;73.99
74895;BME280;63447;49.446;8.666;2023-04-01T00:10:56;98971.81;;;9.68;74.23
74895;BME280;63447;49.446;8.666;2023-04-01T00:13:23;98966.75;;;9.70;73.90
74895;BME280;63447;49.446;8.666;2023-04-01T00:15:51;98997.22;;;9.77;72.71
74895;BME280;63447;49.446;8.666;2023-04-01T00:18:16;98979.81;;;9.73;73.73
74895;BME280;63447;49.446;8.666;2023-04-01T00:20:45;98966.66;;;9.66;73.41
74895;BME280;63447;49.446;8.666;2023-04-01T00:23:11;98981.59;;;9.65;73.44
74895;BME280;63447;49.446;8.666;2023-04-01T00:25:37;98962.75;;;9.67;73.57
74895;BME280;63447;49.446;8.666;2023-04-01T00:28:02;98952.53;;;9.68;72.75
74895;BME280;63447;49.446;8.666;2023-04-01T00:30:30;98967.47;;;9.67;73.15
74895;BME280;63447;49.446;8.666;2023-04-01T00:32:58;98970.66;;;9.69;73.93
74895;BME280;63447;49.446;8.666;2023-04-01T00:35:23;98959.94;;;9.64;73.60
74895;BME280;63447;49.446;8.666;2023-04-01T00:37:51;98974.56;;;9.68;73.14
74895;BME280;63447;49.446;8.666;2023-04-01T00:42:51;98977.34;;;9.68;72.82
74895;BME280;63447;49.446;8.666;2023-04-01T00:47:55;98969.94;;;9.72;72.84
74895;BME280;63447;49.446;8.666;2023-04-01T00:50:24;98958.72;;;9.61;73.31
74895;BME280;63447;49.446;8.666;2023-04-01T00:52:52;98978.41;;;9.63;73.28
74895;BME280;63447;49.446;8.666;2023-04-01T00:55:19;98968.97;;;9.64;73.33
74895;BME280;63447;49.446;8.666;2023-04-01T00:57:49;98971.25;;;9.59;73.38
74895;BME280;63447;49.446;8.666;2023-04-01T01:00:18;98978.00;;;9.61;73.38
74895;BME280;63447;49.446;8.666;2023-04-01T01:02:46;98969.88;;;9.68;72.70
74895;BME280;63447;49.446;8.666;2023-04-01T01:05:15;98968.28;;;9.67;72.34
74895;BME280;63447;49.446;8.666;2023-04-01T01:07:54;98966.59;;;9.63;73.25
74895;BME280;63447;49.446;8.666;2023-04-01T01:10:37;98967.38;;;9.63;72.95
74895;BME280;63447;49.446;8.666;2023-04-01T01:13:26;98968.19;;;9.64;72.98
74895;BME280;63447;49.446;8.666;2023-04-01T01:16:27;98949.28;;;9.62;72.54
74895;BME280;63447;49.446;8.666;2023-04-01T01:27:36;98946.31;;;9.71;72.71
74895;BME280;63447;49.446;8.666;2023-04-01T01:30:30;98950.66;;;9.72;72.34
74895;BME280;63447;49.446;8.666;2023-04-01T01:35:46;98940.00;;;9.70;71.31
74895;BME280;63447;49.446;8.666;2023-04-01T01:38:18;98950.03;;;9.78;71.80
74895;BME280;63447;49.446;8.666;2023-04-01T01:40:51;98950.75;;;9.75;71.70
74895;BME280;63447;49.446;8.666;2023-04-01T01:43:21;98937.34;;;9.74;70.99
74895;BME280;63447;49.446;8.666;2023-04-01T01:45:52;98931.31;;;9.68;71.51
74895;BME280;63447;49.446;8.666;2023-04-01T01:48:19;98932.78;;;9.81;71.53
74895;BME280;63447;49.446;8.666;2023-04-01T01:50:46;98933.16;;;9.80;71.13
74895;BME280;63447;49.446;8.666;2023-04-01T01:53:15;98936.91;;;9.72;71.26
74895;BME280;63447;49.446;8.666;2023-04-01T01:55:43;98923.56;;;9.74;71.17
74895;BME280;63447;49.446;8.666;2023-04-01T01:58:29;98924.38;;;9.74;71.07
74895;BME280;63447;49.446;8.666;2023-04-01T02:01:00;98937.34;;;9.74;71.75
74895;BME280;63447;49.446;8.666;2023-04-01T02:03:32;98923.06;;;9.68;71.15
74895;BME280;63447;49.446;8.666;2023-04-01T02:06:00;98930.91;;;9.85;70.77
74895;BME280;63447;49.446;8.666;2023-04-01T02:08:35;98934.88;;;9.88;70.19
74895;BME280;63447;49.446;8.666;2023-04-01T02:11:08;98927.72;;;9.83;70.51
74895;BME280;63447;49.446;8.666;2023-04-01T02:13:40;98916.81;;;9.91;70.08
74895;BME280;63447;49.446;8.666;2023-04-01T02:16:18;98923.13;;;9.91;70.68
74895;BME280;63447;49.446;8.666;2023-04-01T02:18:49;98915.00;;;9.98;69.44
74895;BME280;63447;49.446;8.666;2023-04-01T02:21:20;98917.03;;;10.01;70.65
74895;BME280;63447;49.446;8.666;2023-04-01T02:23:50;98927.84;;;9.91;70.30
74895;BME280;63447;49.446;8.666;2023-04-01T02:26:18;98929.78;;;9.90;70.78
74895;BME280;63447;49.446;8.666;2023-04-01T02:28:48;98925.81;;;9.87;70.63
74895;BME280;63447;49.446;8.666;2023-04-01T02:31:14;98927.00;;;9.86;70.62
74895;BME280;63447;49.446;8.666;2023-04-01T02:33:42;98921.78;;;9.81;70.22
74895;BME280;63447;49.446;8.666;2023-04-01T02:36:13;98922.28;;;9.87;69.76
74895;BME280;63447;49.446;8.666;2023-04-01T02:38:42;98933.72;;;9.89;69.81
74895;BME280;63447;49.446;8.666;2023-04-01T02:41:09;98928.16;;;9.85;70.32
74895;BME280;63447;49.446;8.666;2023-04-01T02:43:35;98947.13;;;9.91;69.95
74895;BME280;63447;49.446;8.666;2023-04-01T02:46:05;98931.53;;;9.79;70.70
74895;BME280;63447;49.446;8.666;2023-04-01T02:48:30;98936.41;;;9.85;70.27
74895;BME280;63447;49.446;8.666;2023-04-01T02:50:56;98932.53;;;9.90;70.55
74895;BME280;63447;49.446;8.666;2023-04-01T02:53:21;98924.53;;;9.81;70.54
74895;BME280;63447;49.446;8.666;2023-04-01T02:55:47;98931.53;;;9.79;71.60
74895;BME280;63447;49.446;8.666;2023-04-01T02:58:15;98937.06;;;9.79;71.16
74895;BME280;63447;49.446;8.666;2023-04-01T03:00:40;98926.03;;;9.79;70.99
74895;BME280;63447;49.446;8.666;2023-04-01T03:03:05;98935.25;;;9.86;70.90
74895;BME280;63447;49.446;8.666;2023-04-01T03:05:31;98942.72;;;9.86;71.17
74895;BME280;63447;49.446;8.666;2023-04-01T03:07:58;98940.97;;;9.78;71.58
74895;BME280;63447;49.446;8.666;2023-04-01T03:10:26;98932.41;;;9.83;70.81
74895;BME280;63447;49.446;8.666;2023-04-01T03:12:53;98935.19;;;9.83;71.10
74895;BME280;63447;49.446;8.666;2023-04-01T03:15:19;98914.06;;;9.71;70.82
74895;BME280;63447;49.446;8.666;2023-04-01T03:17:46;98935.09;;;9.79;71.13
74895;BME280;63447;49.446;8.666;2023-04-01T03:20:12;98931.19;;;9.80;70.82
74895;BME280;63447;49.446;8.666;2023-04-01T03:22:38;98944.53;;;9.78;70.81
74895;BME280;63447;49.446;8.666;2023-04-01T03:25:05;98929.72;;;9.67;71.05
74895;BME280;63447;49.446;8.666;2023-04-01T03:27:33;98930.03;;;9.81;71.14
74895;BME280;63447;49.446;8.666;2023-04-01T03:30:03;98941.94;;;9.85;71.02
74895;BME280;63447;49.446;8.666;2023-04-01T03:32:28;98930.53;;;9.87;70.94
74895;BME280;63447;49.446;8.666;2023-04-01T03:34:54;98940.63;;;9.79;71.53
74895;BME280;63447;49.446;8.666;2023-04-01T03:37:19;98929.50;;;9.95;70.46
74895;BME280;63447;49.446;8.666;2023-04-01T03:39:44;98933.88;;;9.77;72.22
74895;BME280;63447;49.446;8.666;2023-04-01T03:42:10;98936.25;;;9.78;71.45
74895;BME280;63447;49.446;8.666;2023-04-01T03:44:36;98931.91;;;9.77;71.54
74895;BME280;63447;49.446;8.666;2023-04-01T03:47:01;98937.84;;;9.79;71.30
74895;BME280;63447;49.446;8.666;2023-04-01T03:49:29;98929.44;;;9.72;70.81
74895;BME280;63447;49.446;8.666;2023-04-01T03:51:54;98937.06;;;9.79;70.64
74895;BME280;63447;49.446;8.666;2023-04-01T03:54:20;98941.13;;;9.85;70.80
74895;BME280;63447;49.446;8.666;2023-04-01T03:56:48;98939.97;;;9.86;70.41
74895;BME280;63447;49.446;8.666;2023-04-01T03:59:16;98938.06;;;9.90;69.67
74895;BME280;63447;49.446;8.666;2023-04-01T04:01:41;98937.41;;;9.97;69.96
74895;BME280;63447;49.446;8.666;2023-04-01T04:04:14;98938.00;;;9.86;70.15
74895;BME280;63447;49.446;8.666;2023-04-01T04:06:42;98939.56;;;9.87;70.72
74895;BME280;63447;49.446;8.666;2023-04-01T04:09:08;98937.22;;;9.86;70.09
74895;BME280;63447;49.446;8.666;2023-04-01T04:11:33;98929.00;;;9.90;70.29
74895;BME280;63447;49.446;8.666;2023-04-01T04:13:59;98920.88;;;9.77;70.68
74895;BME280;63447;49.446;8.666;2023-04-01T04:16:29;98913.34;;;9.74;70.22
74895;BME280;63447;49.446;8.666;2023-04-01T04:18:57;98925.88;;;9.91;70.33
74895;BME280;63447;49.446;8.666;2023-04-01T04:21:24;98927.63;;;9.80;70.75
74895;BME280;63447;49.446;8.666;2023-04-01T04:23:50;98926.75;;;9.76;70.85
74895;BME280;63447;49.446;8.666;2023-04-01T04:26:16;98939.28;;;9.54;72.36
74895;BME280;63447;49.446;8.666;2023-04-01T04:28:42;98924.88;;;9.61;72.62
74895;BME280;63447;49.446;8.666;2023-04-01T04:31:07;98931.19;;;9.61;72.53
74895;BME280;63447;49.446;8.666;2023-04-01T04:33:33;98931.72;;;9.32;74.33
74895;BME280;63447;49.446;8.666;2023-04-01T04:36:02;98923.44;;;9.32;74.44
74895;BME280;63447;49.446;8.666;2023-04-01T04:38:28;98925.75;;;9.30;74.45
74895;BME280;63447;49.446;8.666;2023-04-01T04:40:54;98931.34;;;9.33;74.09
74895;BME280;63447;49.446;8.666;2023-04-01T04:43:22;98926.22;;;9.16;75.34
74895;BME280;63447;49.446;8.666;2023-04-01T04:45:47;98942.38;;;9.17;75.47
74895;BME280;63447;49.446;8.666;2023-04-01T04:48:16;98933.66;;;9.15;75.59
74895;BME280;63447;49.446;8.666;2023-04-01T04:50:46;98927.72;;;9.13;75.97
74895;BME280;63447;49.446;8.666;2023-04-01T04:53:15;98940.25;;;9.11;76.43
74895;BME280;63447;49.446;8.666;2023-04-01T04:55:46;98919.50;;;8.98;76.60
74895;BME280;63447;49.446;8.666;2023-04-01T04:58:11;98934.50;;;9.00;77.68
74895;BME280;63447;49.446;8.666;2023-04-01T05:00:37;98938.13;;;8.89;77.90
74895;BME280;63447;49.446;8.666;2023-04-01T05:03:04;98935.47;;;8.92;77.60
74895;BME280;63447;49.446;8.666;2023-04-01T05:05:32;98922.69;;;8.84;77.79
74895;BME280;63447;49.446;8.666;2023-04-01T05:08:00;98932.13;;;8.83;77.36
74895;BME280;63447;49.446;8.666;2023-04-01T05:10:31;98936.38;;;8.80;78.00
74895;BME280;63447;49.446;8.666;2023-04-01T05:12:57;98928.13;;;8.80;78.03
74895;BME280;63447;49.446;8.666;2023-04-01T05:15:22;98925.38;;;8.80;78.15
74895;BME280;63447;49.446;8.666;2023-04-01T05:17:48;98936.03;;;8.82;77.77
74895;BME280;63447;49.446;8.666;2023-04-01T05:20:16;98920.03;;;8.88;77.46
74895;BME280;63447;49.446;8.666;2023-04-01T05:22:42;98923.94;;;8.87;77.30
74895;BME280;63447;49.446;8.666;2023-04-01T05:25:10;98922.16;;;8.94;76.83
74895;BME280;63447;49.446;8.666;2023-04-01T05:27:42;98920.69;;;8.81;76.87
74895;BME280;63447;49.446;8.666;2023-04-01T05:30:08;98928.72;;;8.90;76.78
74895;BME280;63447;49.446;8.666;2023-04-01T05:32:33;98920.91;;;9.07;76.19
74895;BME280;63447;49.446;8.666;2023-04-01T05:34:59;98924.28;;;9.01;76.22
74895;BME280;63447;49.446;8.666;2023-04-01T05:37:28;98919.16;;;8.99;75.59
74895;BME280;63447;49.446;8.666;2023-04-01T05:39:54;98902.47;;;8.92;76.13
74895;BME280;63447;49.446;8.666;2023-04-01T05:42:23;98916.00;;;9.16;74.91
74895;BME280;63447;49.446;8.666;2023-04-01T05:44:52;98923.69;;;9.07;75.23
74895;BME280;63447;49.446;8.666;2023-04-01T05:47:17;98915.06;;;9.09;75.46
74895;BME280;63447;49.446;8.666;2023-04-01T05:49:43;98931.56;;;9.09;75.45
74895;BME280;63447;49.446;8.666;2023-04-01T05:52:08;98907.06;;;9.04;75.60
74895;BME280;63447;49.446;8.666;2023-04-01T05:54:33;98916.72;;;9.13;75.11
74895;BME280;63447;49.446;8.666;2023-04-01T05:57:01;98888.88;;;8.99;75.16
74895;BME280;63447;49.446;8.666;2023-04-01T05:59:26;98916.09;;;9.20;75.00
74895;BME280;63447;49.446;8.666;2023-04-01T06:01:56;98914.94;;;9.21;74.40
74895;BME280;63447;49.446;8.666;2023-04-01T06:04:21;98913.94;;;9.29;75.16
74895;BME280;63447;49.446;8.666;2023-04-01T06:06:47;98908.09;;;9.31;74.00
74895;BME280;63447;49.446;8.666;2023-04-01T06:09:18;98904.63;;;9.34;74.14
74895;BME280;63447;49.446;8.666;2023-04-01T06:11:46;98920.78;;;9.35;73.33
74895;BME280;63447;49.446;8.666;2023-04-01T06:17:12;98913.28;;;9.36;73.76
74895;BME280;63447;49.446;8.666;2023-04-01T06:20:13;98912.75;;;9.46;74.25
74895;BME280;63447;49.446;8.666;2023-04-01T06:34:06;98916.72;;;9.48;73.77
74895;BME280;63447;49.446;8.666;2023-04-01T06:36:57;98906.16;;;9.50;73.34
74895;BME280;63447;49.446;8.666;2023-04-01T06:39:43;98914.66;;;9.61;72.45
74895;BME280;63447;49.446;8.666;2023-04-01T06:50:28;98918.41;;;9.53;73.21
74895;BME280;63447;49.446;8.666;2023-04-01T06:53:19;98909.19;;;9.45;73.49
74895;BME280;63447;49.446;8.666;2023-04-01T06:56:08;98903.25;;;9.43;73.84
74895;BME280;63447;49.446;8.666;2023-04-01T06:58:38;98897.81;;;9.47;73.71
74895;BME280;63447;49.446;8.666;2023-04-01T07:01:12;98909.19;;;9.45;73.92
74895;BME280;63447;49.446;8.666;2023-04-01T07:03:56;98904.25;;;9.35;74.62
74895;BME280;63447;49.446;8.666;2023-04-01T07:06:32;98909.59;;;9.28;75.44
74895;BME280;63447;49.446;8.666;2023-04-01T07:09:06;98901.72;;;9.11;75.63
74895;BME280;63447;49.446;8.666;2023-04-01T07:11:39;98911.31;;;9.17;76.70
74895;BME280;63447;49.446;8.666;2023-04-01T07:14:22;98915.91;;;9.29;76.22
74895;BME280;63447;49.446;8.666;2023-04-01T07:17:09;98898.16;;;9.10;77.09
74895;BME280;63447;49.446;8.666;2023-04-01T07:22:17;98926.06;;;8.93;77.65
74895;BME280;63447;49.446;8.666;2023-04-01T07:24:45;98914.88;;;9.02;77.71
74895;BME280;63447;49.446;8.666;2023-04-01T07:27:14;98919.16;;;8.99;78.42
74895;BME280;63447;49.446;8.666;2023-04-01T07:29:41;98917.91;;;8.97;78.82
74895;BME280;63447;49.446;8.666;2023-04-01T07:50:36;98936.28;;;8.77;81.53
74895;BME280;63447;49.446;8.666;2023-04-01T07:58:29;98940.19;;;8.76;81.59
74895;BME280;63447;49.446;8.666;2023-04-01T08:01:16;98938.34;;;8.80;82.03
74895;BME280;63447;49.446;8.666;2023-04-01T08:06:49;98941.53;;;8.82;82.29
74895;BME280;63447;49.446;8.666;2023-04-01T08:17:28;98917.94;;;8.81;81.80
74895;BME280;63447;49.446;8.666;2023-04-01T08:22:42;98932.38;;;8.94;81.97
74895;BME280;63447;49.446;8.666;2023-04-01T08:25:16;98939.13;;;8.96;81.59
74895;BME280;63447;49.446;8.666;2023-04-01T08:27:56;98936.53;;;9.03;82.10
74895;BME280;63447;49.446;8.666;2023-04-01T08:33:11;98954.91;;;8.99;81.30
74895;BME280;63447;49.446;8.666;2023-04-01T08:35:50;98934.94;;;9.02;82.12
74895;BME280;63447;49.446;8.666;2023-04-01T08:38:24;98938.03;;;9.16;80.64
74895;BME280;63447;49.446;8.666;2023-04-01T08:41:07;98934.22;;;9.05;81.79
74895;BME280;63447;49.446;8.666;2023-04-01T08:49:05;98946.53;;;9.11;81.43
74895;BME280;63447;49.446;8.666;2023-04-01T08:54:27;98952.84;;;9.12;81.63
74895;BME280;63447;49.446;8.666;2023-04-01T08:56:59;98944.75;;;9.19;82.40
74895;BME280;63447;49.446;8.666;2023-04-01T09:02:39;98950.53;;;9.30;81.67
74895;BME280;63447;49.446;8.666;2023-04-01T09:21:32;98955.94;;;9.26;82.30
74895;BME280;63447;49.446;8.666;2023-04-01T09:35:07;98969.88;;;9.33;82.10
74895;BME280;63447;49.446;8.666;2023-04-01T09:37:53;98972.34;;;9.38;81.44
74895;BME280;63447;49.446;8.666;2023-04-01T09:40:31;98976.59;;;9.36;82.80
74895;BME280;63447;49.446;8.666;2023-04-01T09:45:44;98970.03;;;9.40;83.37
74895;BME280;63447;49.446;8.666;2023-04-01T09:48:25;98956.03;;;9.14;83.09
74895;BME280;63447;49.446;8.666;2023-04-01T09:54:05;98975.31;;;9.30;84.62
74895;BME280;63447;49.446;8.666;2023-04-01T10:07:56;98988.06;;;9.38;83.74
74895;BME280;63447;49.446;8.666;2023-04-01T10:19:35;98978.38;;;9.44;83.68
74895;BME280;63447;49.446;8.666;2023-04-01T10:47:31;98990.97;;;9.61;83.87
74895;BME280;63447;49.446;8.666;2023-04-01T10:50:13;98983.13;;;9.63;83.99
74895;BME280;63447;49.446;8.666;2023-04-01T11:12:56;98989.66;;;9.74;85.76
74895;BME280;63447;49.446;8.666;2023-04-01T11:24:03;98989.91;;;9.84;85.79
74895;BME280;63447;49.446;8.666;2023-04-01T11:29:51;98998.91;;;9.81;85.97
74895;BME280;63447;49.446;8.666;2023-04-01T11:40:36;99010.28;;;9.80;85.30
74895;BME280;63447;49.446;8.666;2023-04-01T11:51:17;99009.91;;;9.81;84.42
74895;BME280;63447;49.446;8.666;2023-04-01T12:02:34;99008.06;;;10.05;83.53
74895;BME280;63447;49.446;8.666;2023-04-01T12:05:24;99021.91;;;10.08;83.39
74895;BME280;63447;49.446;8.666;2023-04-01T12:11:15;99034.22;;;10.14;82.30
74895;BME280;63447;49.446;8.666;2023-04-01T12:24:29;99018.72;;;10.06;82.37
74895;BME280;63447;49.446;8.666;2023-04-01T12:29:55;99017.50;;;10.23;82.91
74895;BME280;63447;49.446;8.666;2023-04-01T12:43:05;99007.78;;;10.29;81.78
74895;BME280;63447;49.446;8.666;2023-04-01T12:52:00;99030.28;;;10.31;80.70
74895;BME280;63447;49.446;8.666;2023-04-01T13:05:09;99040.16;;;10.51;78.88
74895;BME280;63447;49.446;8.666;2023-04-01T13:08:30;99044.94;;;10.54;79.42
74895;BME280;63447;49.446;8.666;2023-04-01T13:13:48;99044.63;;;10.79;78.95
74895;BME280;63447;49.446;8.666;2023-04-01T13:16:29;99032.13;;;10.66;79.39
74895;BME280;63447;49.446;8.666;2023-04-01T13:19:10;99037.25;;;10.64;78.36
74895;BME280;63447;49.446;8.666;2023-04-01T13:21:57;99041.19;;;10.66;79.15
74895;BME280;63447;49.446;8.666;2023-04-01T13:27:29;99047.72;;;10.77;78.74
74895;BME280;63447;49.446;8.666;2023-04-01T13:32:42;99058.44;;;10.60;79.25
74895;BME280;63447;49.446;8.666;2023-04-01T13:38:26;99062.41;;;10.81;79.22
74895;BME280;63447;49.446;8.666;2023-04-01T14:01:30;99071.50;;;11.05;74.72
74895;BME280;63447;49.446;8.666;2023-04-01T14:04:09;99072.59;;;11.00;74.89
74895;BME280;63447;49.446;8.666;2023-04-01T14:09:58;99078.84;;;10.97;75.04
74895;BME280;63447;49.446;8.666;2023-04-01T14:18:05;99087.13;;;10.97;75.45
74895;BME280;63447;49.446;8.666;2023-04-01T14:35:30;99096.13;;;10.94;74.98
74895;BME280;63447;49.446;8.666;2023-04-01T14:38:12;99098.53;;;10.96;74.83
74895;BME280;63447;49.446;8.666;2023-04-01T14:49:30;99105.31;;;10.79;75.55
74895;BME280;63447;49.446;8.666;2023-04-01T14:52:05;99116.00;;;10.80;75.86
74895;BME280;63447;49.446;8.666;2023-04-01T14:54:42;99113.75;;;10.86;74.98
74895;BME280;63447;49.446;8.666;2023-04-01T14:57:13;99120.13;;;10.90;74.92
74895;BME280;63447;49.446;8.666;2023-04-01T15:13:14;99124.78;;;10.86;75.05
74895;BME280;63447;49.446;8.666;2023-04-01T15:18:53;99115.91;;;10.77;75.41
74895;BME280;63447;49.446;8.666;2023-04-01T15:27:07;99125.63;;;10.71;75.52
74895;BME280;63447;49.446;8.666;2023-04-01T15:37:37;99141.19;;;10.79;77.27
74895;BME280;63447;49.446;8.666;2023-04-01T15:40:20;99150.53;;;10.74;77.16
74895;BME280;63447;49.446;8.666;2023-04-01T15:45:38;99135.31;;;10.61;77.65
74895;BME280;63447;49.446;8.666;2023-04-01T15:54:25;99154.25;;;10.82;76.51
74895;BME280;63447;49.446;8.666;2023-04-01T16:16:06;99172.53;;;10.51;76.83
74895;BME280;63447;49.446;8.666;2023-04-01T16:21:14;99165.84;;;10.52;76.87
74895;BME280;63447;49.446;8.666;2023-04-01T16:24:15;99174.66;;;10.58;76.80
74895;BME280;63447;49.446;8.666;2023-04-01T16:26:52;99184.88;;;10.58;76.54
74895;BME280;63447;49.446;8.666;2023-04-01T16:29:25;99180.53;;;10.57;76.84
74895;BME280;63447;49.446;8.666;2023-04-01T16:37:36;99197.06;;;10.57;75.95
74895;BME280;63447;49.446;8.666;2023-04-01T16:42:51;99181.25;;;10.53;75.11
74895;BME280;63447;49.446;8.666;2023-04-01T16:45:43;99187.94;;;10.72;73.68
74895;BME280;63447;49.446;8.666;2023-04-01T16:48:13;99194.59;;;10.71;73.43
74895;BME280;63447;49.446;8.666;2023-04-01T16:58:37;99203.03;;;10.78;72.56
74895;BME280;63447;49.446;8.666;2023-04-01T17:01:12;99207.50;;;10.67;73.33
74895;BME280;63447;49.446;8.666;2023-04-01T17:03:44;99211.47;;;10.85;73.44
74895;BME280;63447;49.446;8.666;2023-04-01T17:11:42;99219.78;;;10.69;74.01
74895;BME280;63447;49.446;8.666;2023-04-01T17:14:25;99228.16;;;10.73;73.62
74895;BME280;63447;49.446;8.666;2023-04-01T17:24:50;99236.88;;;10.75;72.15
74895;BME280;63447;49.446;8.666;2023-04-01T17:30:27;99225.56;;;10.45;74.79
74895;BME280;63447;49.446;8.666;2023-04-01T18:00:39;99259.88;;;10.16;78.08
74895;BME280;63447;49.446;8.666;2023-04-01T18:04:02;99280.34;;;9.99;79.65
74895;BME280;63447;49.446;8.666;2023-04-01T18:17:05;99285.44;;;9.69;80.11
74895;BME280;63447;49.446;8.666;2023-04-01T18:25:14;99318.81;;;9.80;79.66
74895;BME280;63447;49.446;8.666;2023-04-01T18:27:45;99318.25;;;9.74;80.19
74895;BME280;63447;49.446;8.666;2023-04-01T18:30:32;99320.44;;;9.69;80.68
74895;BME280;63447;49.446;8.666;2023-04-01T18:33:18;99322.50;;;9.72;78.90
74895;BME280;63447;49.446;8.666;2023-04-01T18:35:52;99335.13;;;9.73;78.53
74895;BME280;63447;49.446;8.666;2023-04-01T18:38:29;99337.63;;;9.78;78.90
74895;BME280;63447;49.446;8.666;2023-04-01T18:41:18;99341.09;;;9.75;78.91
74895;BME280;63447;49.446;8.666;2023-04-01T18:52:41;99353.50;;;9.69;80.26
74895;BME280;63447;49.446;8.666;2023-04-01T19:05:50;99376.00;;;9.71;82.25
74895;BME280;63447;49.446;8.666;2023-04-01T19:08:33;99374.75;;;9.68;81.31
74895;BME280;63447;49.446;8.666;2023-04-01T19:19:16;99388.81;;;9.51;83.56
74895;BME280;63447;49.446;8.666;2023-04-01T19:36:00;99397.47;;;9.25;83.18
74895;BME280;63447;49.446;8.666;2023-04-01T19:38:38;99395.88;;;9.24;83.63
74895;BME280;63447;49.446;8.666;2023-04-01T19:41:18;99376.25;;;9.13;83.89
74895;BME280;63447;49.446;8.666;2023-04-01T19:49:29;99400.81;;;9.18;83.73
74895;BME280;63447;49.446;8.666;2023-04-01T19:57:26;99403.59;;;9.06;84.27
74895;BME280;63447;49.446;8.666;2023-04-01T20:00:02;99406.78;;;9.08;84.50
74895;BME280;63447;49.446;8.666;2023-04-01T20:02:52;99405.66;;;9.09;84.52
74895;BME280;63447;49.446;8.666;2023-04-01T20:05:33;99396.94;;;8.95;85.07
74895;BME280;63447;49.446;8.666;2023-04-01T20:08:16;99419.28;;;9.06;85.44
74895;BME280;63447;49.446;8.666;2023-04-01T20:10:49;99422.84;;;9.06;85.35
74895;BME280;63447;49.446;8.666;2023-04-01T20:16:09;99407.94;;;9.07;85.20
74895;BME280;63447;49.446;8.666;2023-04-01T20:21:36;99433.03;;;9.18;85.18
74895;BME280;63447;49.446;8.666;2023-04-01T20:27:09;99443.22;;;9.17;85.99
74895;BME280;63447;49.446;8.666;2023-04-01T20:32:32;99447.69;;;9.22;85.51
74895;BME280;63447;49.446;8.666;2023-04-01T20:35:35;99445.53;;;9.03;85.10
74895;BME280;63447;49.446;8.666;2023-04-01T20:44:10;99457.34;;;9.04;84.29
74895;BME280;63447;49.446;8.666;2023-04-01T20:46:51;99443.00;;;8.86;84.31
74895;BME280;63447;49.446;8.666;2023-04-01T21:02:37;99451.50;;;8.93;83.22
74895;BME280;63447;49.446;8.666;2023-04-01T21:17:08;99482.44;;;9.14;84.06
74895;BME280;63447;49.446;8.666;2023-04-01T21:22:49;99489.91;;;9.14;84.37
74895;BME280;63447;49.446;8.666;2023-04-01T21:26:21;99492.31;;;9.15;84.24
74895;BME280;63447;49.446;8.666;2023-04-01T21:31:33;99505.16;;;9.24;83.75
74895;BME280;63447;49.446;8.666;2023-04-01T21:43:09;99515.00;;;9.00;86.07
74895;BME280;63447;49.446;8.666;2023-04-01T21:51:39;99526.66;;;8.85;86.34
74895;BME280;63447;49.446;8.666;2023-04-01T22:02:56;99533.34;;;8.96;84.89
74895;BME280;63447;49.446;8.666;2023-04-01T22:05:37;99540.00;;;8.95;84.19
74895;BME280;63447;49.446;8.666;2023-04-01T22:10:56;99509.25;;;8.81;85.24
74895;BME280;63447;49.446;8.666;2023-04-01T22:13:48;99532.53;;;8.96;84.68
74895;BME280;63447;49.446;8.666;2023-04-01T22:24:40;99524.25;;;8.83;86.75
74895;BME280;63447;49.446;8.666;2023-04-01T22:27:32;99545.28;;;9.00;86.37
74895;BME280;63447;49.446;8.666;2023-04-01T22:32:45;99547.91;;;8.97;86.10
74895;BME280;63447;49.446;8.666;2023-04-01T22:35:33;99551.22;;;8.90;86.88
74895;BME280;63447;49.446;8.666;2023-04-01T22:38:19;99550.63;;;8.84;87.68
74895;BME280;63447;49.446;8.666;2023-04-01T22:43:44;99558.31;;;8.91;86.28
74895;BME280;63447;49.446;8.666;2023-04-01T22:46:20;99561.06;;;8.91;85.98
74895;BME280;63447;49.446;8.666;2023-04-01T22:49:03;99562.09;;;8.87;86.12
74895;BME280;63447;49.446;8.666;2023-04-01T22:51:40;99567.50;;;8.83;86.05
74895;BME280;63447;49.446;8.666;2023-04-01T22:56:40;99568.41;;;8.87;86.20
74895;BME280;63447;49.446;8.666;2023-04-01T22:59:08;99567.94;;;8.85;86.22
74895;BME280;63447;49.446;8.666;2023-04-01T23:01:43;99550.72;;;8.76;86.16
74895;BME280;63447;49.446;8.666;2023-04-01T23:04:12;99554.97;;;8.85;85.65
74895;BME280;63447;49.446;8.666;2023-04-01T23:06:49;99563.56;;;8.84;85.54
74895;BME280;63447;49.446;8.666;2023-04-01T23:11:51;99572.19;;;8.82;85.29
74895;BME280;63447;49.446;8.666;2023-04-01T23:17:02;99571.38;;;8.82;86.13
74895;BME280;63447;49.446;8.666;2023-04-01T23:19:42;99569.84;;;8.72;85.48
74895;BME280;63447;49.446;8.666;2023-04-01T23:22:20;99578.56;;;8.74;85.92
74895;BME280;63447;49.446;8.666;2023-04-01T23:27:49;99599.97;;;8.69;87.16
74895;BME280;63447;49.446;8.666;2023-04-01T23:35:52;99602.28;;;8.46;88.68
74895;BME280;63447;49.446;8.666;2023-04-01T23:38:22;99608.06;;;8.53;88.97
74895;BME280;63447;49.446;8.666;2023-04-01T23:40:52;99611.00;;;8.48;89.27
74895;BME280;63447;49.446;8.666;2023-04-01T23:43:39;99617.31;;;8.48;89.48
74895;BME280;63447;49.446;8.666;2023-04-01T23:46:08;99623.28;;;8.50;89.91
74895;BME280;63447;49.446;8.666;2023-04-01T23:48:41;99609.25;;;8.43;90.13
74895;BME280;63447;49.446;8.666;2023-04-01T23:51:20;99628.00;;;8.62;88.90
74895;BME280;63447;49.446;8.666;2023-04-01T23:53:48;99636.34;;;8.54;89.47
74895;BME280;63447;49.446;8.666;2023-04-01T23:56:33;99606.72;;;8.38;91.23
74895;BME280;63447;49.446;8.666;2023-04-01T23:59:03;99633.75;;;8.57;90.55
